createdAt,value
2018-10-16T00:01:03.308Z,11.40
2018-10-16T00:03:38.858Z,10.93
2018-10-16T00:06:14.563Z,12.07
2018-10-16T00:08:50.260Z,10.73
2018-10-16T00:11:25.805Z,11.10
2018-10-16T00:14:01.415Z,11.70
2018-10-16T00:16:36.990Z,11.93
2018-10-16T00:19:12.670Z,11.47
2018-10-16T00:21:48.263Z,12.27
2018-10-16T00:24:23.782Z,11.30
2018-10-16T00:26:59.273Z,10.10
2018-10-16T00:29:34.839Z,10.93
2018-10-16T00:32:10.455Z,11.63
2018-10-16T00:34:46.042Z,11.37
2018-10-16T00:37:21.639Z,10.70
2018-10-16T00:39:57.235Z,11.40
2018-10-16T00:42:32.858Z,10.37
2018-10-16T00:45:10.360Z,11.40
2018-10-16T00:47:45.898Z,10.97
2018-10-16T00:50:21.562Z,10.23
2018-10-16T00:52:57.191Z,11.60
2018-10-16T00:55:32.759Z,10.70
2018-10-16T00:58:08.339Z,10.43
2018-10-16T01:00:43.981Z,10.83
2018-10-16T01:03:19.596Z,10.57
2018-10-16T01:05:55.155Z,9.97
2018-10-16T01:08:30.675Z,10.90
2018-10-16T01:11:10.848Z,10.43
2018-10-16T01:13:46.535Z,10.40
2018-10-16T01:16:22.173Z,11.03
2018-10-16T01:18:57.795Z,11.30
2018-10-16T01:21:33.513Z,11.20
2018-10-16T01:24:09.148Z,9.33
2018-10-16T01:26:44.563Z,11.23
2018-10-16T01:29:20.098Z,11.10
2018-10-16T01:31:55.588Z,11.23
2018-10-16T01:34:31.190Z,11.47
2018-10-16T01:37:06.677Z,9.50
2018-10-16T01:39:42.165Z,11.30
2018-10-16T01:42:17.742Z,10.67
2018-10-16T01:44:53.573Z,11.13
2018-10-16T01:47:29.194Z,10.67
2018-10-16T01:50:05.202Z,10.90
2018-10-16T01:52:40.770Z,11.37
2018-10-16T01:55:16.270Z,10.87
2018-10-16T01:57:51.830Z,10.73
2018-10-16T02:00:27.287Z,10.47
2018-10-16T02:03:02.786Z,10.80
2018-10-16T02:05:38.504Z,9.77
2018-10-16T02:08:13.970Z,10.00
2018-10-16T02:10:49.507Z,11.37
2018-10-16T02:13:25.055Z,10.33
2018-10-16T02:16:00.609Z,10.53
2018-10-16T02:18:36.254Z,10.27
2018-10-16T02:21:11.908Z,10.60
2018-10-16T02:23:47.438Z,10.63
2018-10-16T02:26:23.047Z,10.30
2018-10-16T02:28:58.598Z,9.87
2018-10-16T02:31:34.327Z,9.57
2018-10-16T02:34:09.910Z,10.13
2018-10-16T02:36:45.484Z,9.90
2018-10-16T02:39:21.090Z,10.40
2018-10-16T02:41:56.639Z,10.33
2018-10-16T02:44:32.107Z,10.33
2018-10-16T02:47:07.706Z,10.37
2018-10-16T02:49:43.072Z,9.80
2018-10-16T02:52:18.611Z,8.80
2018-10-16T02:54:54.111Z,10.10
2018-10-16T02:57:29.667Z,9.57
2018-10-16T03:00:05.396Z,9.90
2018-10-16T03:02:41.094Z,9.07
2018-10-16T03:05:16.575Z,9.87
2018-10-16T03:07:52.155Z,8.93
2018-10-16T03:10:27.709Z,9.10
2018-10-16T03:13:03.475Z,9.00
2018-10-16T03:15:38.894Z,9.67
2018-10-16T03:18:14.495Z,10.10
2018-10-16T03:20:50.055Z,9.60
2018-10-16T03:23:25.549Z,9.30
2018-10-16T03:26:01.050Z,9.70
2018-10-16T03:28:36.633Z,9.33
2018-10-16T03:31:18.982Z,9.33
2018-10-16T03:33:55.031Z,9.23
2018-10-16T03:36:30.634Z,9.80
2018-10-16T03:39:09.334Z,9.13
2018-10-16T03:41:44.815Z,9.50
2018-10-16T03:44:20.210Z,8.90
2018-10-16T03:46:55.813Z,9.40
2018-10-16T03:49:31.349Z,9.97
2018-10-16T03:52:06.878Z,9.57
2018-10-16T03:54:42.446Z,8.17
2018-10-16T03:57:18.100Z,9.63
2018-10-16T03:59:53.533Z,9.63
2018-10-16T04:02:29.044Z,9.37
2018-10-16T04:05:04.602Z,9.80
2018-10-16T04:07:40.528Z,9.00
2018-10-16T04:10:16.105Z,10.20
2018-10-16T04:12:51.599Z,9.07
2018-10-16T04:15:27.181Z,9.20
2018-10-16T04:18:02.770Z,9.60
2018-10-16T04:20:38.197Z,8.83
2018-10-16T04:23:13.686Z,8.43
2018-10-16T04:25:49.307Z,8.90
2018-10-16T04:28:24.874Z,9.47
2018-10-16T04:31:00.438Z,9.57
2018-10-16T04:33:35.997Z,9.90
2018-10-16T04:36:11.521Z,10.03
2018-10-16T04:38:47.055Z,9.87
2018-10-16T04:41:22.689Z,10.37
2018-10-16T04:43:58.335Z,9.90
2018-10-16T04:46:33.892Z,9.97
2018-10-16T04:49:09.454Z,9.60
2018-10-16T04:51:45.008Z,9.37
2018-10-16T04:54:20.586Z,10.10
2018-10-16T04:56:56.113Z,9.80
2018-10-16T04:59:31.667Z,9.83
2018-10-16T05:02:07.393Z,10.43
2018-10-16T05:04:42.981Z,9.40
2018-10-16T05:07:18.517Z,10.27
2018-10-16T05:09:54.081Z,10.73
2018-10-16T05:12:29.657Z,9.77
2018-10-16T05:15:05.530Z,10.50
2018-10-16T05:17:40.979Z,10.37
2018-10-16T05:20:16.526Z,9.90
2018-10-16T05:22:52.149Z,10.47
2018-10-16T05:25:28.902Z,10.47
2018-10-16T05:28:05.240Z,10.13
2018-10-16T05:30:40.830Z,10.23
2018-10-16T05:33:16.463Z,9.10
2018-10-16T05:35:52.035Z,9.70
2018-10-16T05:38:27.603Z,10.03
2018-10-16T05:41:03.170Z,8.80
2018-10-16T05:43:38.725Z,8.80
2018-10-16T05:46:14.412Z,9.67
2018-10-16T05:48:49.995Z,9.60
2018-10-16T05:51:25.609Z,10.00
2018-10-16T05:54:01.175Z,9.23
2018-10-16T05:56:36.706Z,10.83
2018-10-16T05:59:12.278Z,10.43
2018-10-16T06:01:47.846Z,9.60
2018-10-16T06:04:23.380Z,8.57
2018-10-16T06:06:59.068Z,10.30
2018-10-16T06:09:34.870Z,9.07
2018-10-16T06:12:10.485Z,9.60
2018-10-16T06:14:46.043Z,9.93
2018-10-16T06:17:21.610Z,9.80
2018-10-16T06:19:57.194Z,9.43
2018-10-16T06:22:32.745Z,8.87
2018-10-16T06:25:09.078Z,9.13
2018-10-16T06:27:44.729Z,9.10
2018-10-16T06:30:20.388Z,9.37
2018-10-16T06:32:55.966Z,9.10
2018-10-16T06:35:31.534Z,8.77
2018-10-16T06:38:07.062Z,9.97
2018-10-16T06:40:42.701Z,8.87
2018-10-16T06:43:18.186Z,9.30
2018-10-16T06:45:53.800Z,9.03
2018-10-16T06:48:29.564Z,8.83
2018-10-16T06:51:05.298Z,9.23
2018-10-16T06:53:40.855Z,9.23
2018-10-16T06:56:16.467Z,9.17
2018-10-16T06:58:52.082Z,9.17
2018-10-16T07:01:27.660Z,9.40
2018-10-16T07:04:03.322Z,10.07
2018-10-16T07:06:38.915Z,10.03
2018-10-16T07:09:14.510Z,8.83
2018-10-16T07:11:50.086Z,9.13
2018-10-16T07:14:25.687Z,9.53
2018-10-16T07:17:01.291Z,9.47
2018-10-16T07:19:36.909Z,9.33
2018-10-16T07:22:12.886Z,9.80
2018-10-16T07:24:48.409Z,9.97
2018-10-16T07:27:24.006Z,9.43
2018-10-16T07:29:59.618Z,9.73
2018-10-16T07:32:35.197Z,10.63
2018-10-16T07:35:11.210Z,9.70
2018-10-16T07:37:46.714Z,10.93
2018-10-16T07:40:22.208Z,9.50
2018-10-16T07:42:57.738Z,9.87
2018-10-16T07:45:33.330Z,10.17
2018-10-16T07:48:08.897Z,9.20
2018-10-16T07:50:44.496Z,10.33
2018-10-16T07:53:20.036Z,9.60
2018-10-16T07:55:55.797Z,10.60
2018-10-16T07:58:31.498Z,10.30
2018-10-16T08:01:07.154Z,10.23
2018-10-16T08:03:42.707Z,10.83
2018-10-16T08:06:18.298Z,10.73
2018-10-16T08:08:53.927Z,10.33
2018-10-16T08:11:29.533Z,10.97
2018-10-16T08:14:05.362Z,11.53
2018-10-16T08:16:41.006Z,10.23
2018-10-16T08:19:16.534Z,10.17
2018-10-16T08:21:52.110Z,10.40
2018-10-16T08:24:27.745Z,11.33
2018-10-16T08:27:03.266Z,11.50
2018-10-16T08:29:38.794Z,10.47
2018-10-16T08:32:14.454Z,10.70
2018-10-16T08:34:49.979Z,10.17
2018-10-16T08:39:49.966Z,10.50
2018-10-16T08:43:43.057Z,9.50
2018-10-16T08:46:35.646Z,9.03
2018-10-16T08:49:28.133Z,9.73
2018-10-16T08:52:03.881Z,9.60
2018-10-16T08:54:39.446Z,9.33
2018-10-16T08:57:15.047Z,9.77
2018-10-16T08:59:50.618Z,9.53
2018-10-16T09:02:26.182Z,9.47
2018-10-16T09:05:01.719Z,9.53
2018-10-16T09:07:37.361Z,9.83
2018-10-16T09:10:12.931Z,10.37
2018-10-16T09:12:48.563Z,8.77
2018-10-16T09:15:24.690Z,8.87
2018-10-16T09:18:00.205Z,8.13
2018-10-16T09:20:35.798Z,7.97
2018-10-16T09:23:11.362Z,9.30
2018-10-16T09:25:46.901Z,8.50
2018-10-16T09:28:22.449Z,8.17
2018-10-16T09:30:58.067Z,7.80
2018-10-16T09:33:33.565Z,8.47
2018-10-16T09:36:09.194Z,7.90
2018-10-16T09:38:44.771Z,7.97
2018-10-16T09:41:20.350Z,8.43
2018-10-16T09:43:55.953Z,9.10
2018-10-16T09:46:31.539Z,7.50
2018-10-16T09:49:07.134Z,8.47
2018-10-16T09:51:42.679Z,7.80
2018-10-16T09:54:18.261Z,8.07
2018-10-16T09:56:53.865Z,7.97
2018-10-16T09:59:29.401Z,7.93
2018-10-16T10:02:05.492Z,9.10
2018-10-16T10:04:41.118Z,8.17
2018-10-16T10:07:16.672Z,8.33
2018-10-16T10:09:52.253Z,8.63
2018-10-16T10:12:27.886Z,9.17
2018-10-16T10:15:03.515Z,8.53
2018-10-16T10:17:39.110Z,9.27
2018-10-16T10:20:14.673Z,8.43
2018-10-16T10:22:50.186Z,8.70
2018-10-16T10:25:25.738Z,9.57
2018-10-16T10:28:01.329Z,9.23
2018-10-16T10:30:36.854Z,9.57
2018-10-16T10:33:12.523Z,8.60
2018-10-16T10:35:48.115Z,8.83
2018-10-16T10:38:23.749Z,9.30
2018-10-16T10:40:59.313Z,9.97
2018-10-16T10:43:34.903Z,9.57
2018-10-16T10:46:10.473Z,8.87
2018-10-16T10:48:46.038Z,11.23
2018-10-16T10:51:21.844Z,11.40
2018-10-16T10:53:57.285Z,9.40
2018-10-16T10:56:32.868Z,10.27
2018-10-16T10:59:08.435Z,9.63
2018-10-16T11:01:43.938Z,9.97
2018-10-16T11:04:19.603Z,9.27
2018-10-16T11:06:55.201Z,12.63
2018-10-16T11:09:30.789Z,11.17
2018-10-16T11:12:06.582Z,9.67
2018-10-16T11:14:42.205Z,9.90
2018-10-16T11:17:17.767Z,9.47
2018-10-16T11:19:53.342Z,9.97
2018-10-16T11:22:28.888Z,9.63
2018-10-16T11:25:05.082Z,10.83
2018-10-16T11:27:40.652Z,9.87
2018-10-16T11:30:16.522Z,9.57
2018-10-16T11:32:52.028Z,8.93
2018-10-16T11:35:27.583Z,8.57
2018-10-16T11:38:03.231Z,8.77
2018-10-16T11:40:38.881Z,8.50
2018-10-16T11:43:14.503Z,8.83
2018-10-16T11:45:50.266Z,10.13
2018-10-16T11:48:25.839Z,9.20
2018-10-16T11:51:01.611Z,9.33
2018-10-16T11:53:37.228Z,9.43
2018-10-16T11:56:12.926Z,10.10
2018-10-16T11:58:48.502Z,8.63
2018-10-16T12:01:24.098Z,8.40
2018-10-16T12:03:59.714Z,8.70
2018-10-16T12:06:35.270Z,6.10
2018-10-16T12:09:11.103Z,5.83
2018-10-16T12:11:53.326Z,6.00
2018-10-16T12:14:29.090Z,5.70
2018-10-16T12:17:10.965Z,5.87
2018-10-16T12:19:49.991Z,5.50
2018-10-16T12:22:25.513Z,5.63
2018-10-16T12:25:01.144Z,6.03
2018-10-16T12:27:36.933Z,5.90
2018-10-16T12:30:12.520Z,6.03
2018-10-16T12:32:48.077Z,5.77
2018-10-16T12:35:23.669Z,6.27
2018-10-16T12:37:59.294Z,5.37
2018-10-16T12:40:34.843Z,5.67
2018-10-16T12:43:10.439Z,6.10
2018-10-16T12:45:45.978Z,5.83
2018-10-16T12:48:21.571Z,5.37
2018-10-16T12:50:57.181Z,5.57
2018-10-16T12:53:32.706Z,5.53
2018-10-16T12:56:08.373Z,5.67
2018-10-16T12:58:43.857Z,5.07
2018-10-16T13:01:19.430Z,4.97
2018-10-16T13:03:54.999Z,5.43
2018-10-16T13:06:30.562Z,4.80
2018-10-16T13:09:09.591Z,5.37
2018-10-16T13:11:44.982Z,5.13
2018-10-16T13:14:20.525Z,5.00
2018-10-16T13:16:56.285Z,5.33
2018-10-16T13:19:32.366Z,5.40
2018-10-16T13:22:07.902Z,5.57
2018-10-16T13:24:43.471Z,5.27
2018-10-16T13:27:19.001Z,5.63
2018-10-16T13:29:54.691Z,4.97
2018-10-16T13:32:30.260Z,5.00
2018-10-16T13:35:07.961Z,5.40
2018-10-16T13:37:44.289Z,5.03
2018-10-16T13:40:19.905Z,5.33
2018-10-16T13:42:55.493Z,5.00
2018-10-16T13:45:30.997Z,5.07
2018-10-16T13:48:07.260Z,5.13
2018-10-16T13:50:43.010Z,5.50
2018-10-16T13:53:18.583Z,4.60
2018-10-16T13:55:56.136Z,5.07
2018-10-16T13:58:31.813Z,4.47
2018-10-16T14:01:07.567Z,4.83
2018-10-16T14:03:43.463Z,4.43
2018-10-16T14:06:19.146Z,4.70
2018-10-16T14:08:54.695Z,4.40
2018-10-16T14:11:30.243Z,4.80
2018-10-16T14:14:06.069Z,4.43
2018-10-16T14:16:41.715Z,5.03
2018-10-16T14:19:17.306Z,4.60
2018-10-16T14:21:52.902Z,5.13
2018-10-16T14:24:28.371Z,4.87
2018-10-16T14:27:03.913Z,4.60
2018-10-16T14:29:39.414Z,5.03
2018-10-16T14:32:15.045Z,5.07
2018-10-16T14:34:50.881Z,5.07
2018-10-16T14:37:26.441Z,5.10
2018-10-16T14:40:02.864Z,4.93
2018-10-16T14:42:38.751Z,5.10
2018-10-16T14:45:14.660Z,5.00
2018-10-16T14:47:50.413Z,5.10
2018-10-16T14:50:25.826Z,5.47
2018-10-16T14:53:01.485Z,5.50
2018-10-16T14:55:36.972Z,4.93
2018-10-16T14:58:14.082Z,5.60
2018-10-16T15:00:49.591Z,5.10
2018-10-16T15:03:25.228Z,4.83
2018-10-16T15:06:00.823Z,5.10
2018-10-16T15:08:36.495Z,5.20
2018-10-16T15:11:12.107Z,5.60
2018-10-16T15:13:47.602Z,5.73
2018-10-16T15:16:23.123Z,5.70
2018-10-16T15:18:58.738Z,5.87
2018-10-16T15:21:34.275Z,5.63
2018-10-16T15:24:09.901Z,5.47
2018-10-16T15:26:45.329Z,6.10
2018-10-16T15:29:20.873Z,6.30
2018-10-16T15:31:56.406Z,5.97
2018-10-16T15:34:31.904Z,5.80
2018-10-16T15:37:07.896Z,6.03
2018-10-16T15:39:43.474Z,6.13
2018-10-16T15:42:18.961Z,5.53
2018-10-16T15:44:54.630Z,5.90
2018-10-16T15:47:30.243Z,6.13
2018-10-16T15:50:06.755Z,6.13
2018-10-16T15:52:42.177Z,6.43
2018-10-16T15:55:17.659Z,5.57
2018-10-16T15:57:53.151Z,5.77
2018-10-16T16:00:28.653Z,5.27
2018-10-16T16:03:04.269Z,5.90
2018-10-16T16:05:39.697Z,5.87
2018-10-16T16:08:16.067Z,6.20
2018-10-16T16:10:51.558Z,6.10
2018-10-16T16:13:27.068Z,5.90
2018-10-16T16:16:02.621Z,5.67
2018-10-16T16:18:38.187Z,6.07
2018-10-16T16:21:13.703Z,5.87
2018-10-16T16:23:49.313Z,6.20
2018-10-16T16:26:24.839Z,6.53
2018-10-16T16:29:00.404Z,5.90
2018-10-16T16:31:35.923Z,7.10
2018-10-16T16:34:11.636Z,6.90
2018-10-16T16:36:47.044Z,6.97
2018-10-16T16:39:22.713Z,7.00
2018-10-16T16:41:58.199Z,7.30
2018-10-16T16:44:33.919Z,7.10
2018-10-16T16:47:09.322Z,7.50
2018-10-16T16:49:44.822Z,6.30
2018-10-16T16:52:20.317Z,6.87
2018-10-16T16:54:55.919Z,6.20
2018-10-16T16:57:31.394Z,6.40
2018-10-16T17:00:10.925Z,5.93
2018-10-16T17:02:46.862Z,6.70
2018-10-16T17:05:22.302Z,7.03
2018-10-16T17:07:57.752Z,6.90
2018-10-16T17:10:33.336Z,6.40
2018-10-16T17:13:08.828Z,6.33
2018-10-16T17:15:44.366Z,7.17
2018-10-16T17:18:19.905Z,6.87
2018-10-16T17:20:55.453Z,7.13
2018-10-16T17:23:30.998Z,6.17
2018-10-16T17:26:07.062Z,6.10
2018-10-16T17:28:42.527Z,7.40
2018-10-16T17:31:18.201Z,6.57
2018-10-16T17:33:54.303Z,6.77
2018-10-16T17:36:30.182Z,6.67
2018-10-16T17:39:08.726Z,7.37
2018-10-16T17:41:44.198Z,7.13
2018-10-16T17:44:19.826Z,8.80
2018-10-16T17:46:55.455Z,8.67
2018-10-16T17:49:31.011Z,8.77
2018-10-16T17:52:07.450Z,8.87
2018-10-16T17:54:43.576Z,8.83
2018-10-16T17:57:19.215Z,9.67
2018-10-16T17:59:56.423Z,9.67
2018-10-16T18:02:32.290Z,8.90
2018-10-16T18:05:07.959Z,9.47
2018-10-16T18:07:44.232Z,8.97
2018-10-16T18:10:19.918Z,9.00
2018-10-16T18:12:55.542Z,9.20
2018-10-16T18:15:31.102Z,9.63
2018-10-16T18:18:07.075Z,8.87
2018-10-16T18:20:42.741Z,10.83
2018-10-16T18:23:18.254Z,9.33
2018-10-16T18:25:53.782Z,10.50
2018-10-16T18:28:29.303Z,10.17
2018-10-16T18:31:05.342Z,9.47
2018-10-16T18:33:40.882Z,9.07
2018-10-16T18:36:16.471Z,9.47
2018-10-16T18:38:46.696Z,8.43
2018-10-16T18:41:16.971Z,9.53
2018-10-16T18:43:47.205Z,9.70
2018-10-16T18:46:17.999Z,8.87
2018-10-16T18:48:48.488Z,9.10
2018-10-16T18:51:18.743Z,9.87
2018-10-16T18:53:49.676Z,10.37
2018-10-16T18:56:20.181Z,10.97
2018-10-16T18:58:50.435Z,9.87
2018-10-16T19:01:20.837Z,9.83
2018-10-16T19:03:51.150Z,11.97
2018-10-16T19:06:21.495Z,12.40
2018-10-16T19:08:51.752Z,12.20
2018-10-16T19:11:22.027Z,12.37
2018-10-16T19:13:52.267Z,11.60
2018-10-16T19:16:22.525Z,11.07
2018-10-16T19:18:52.799Z,11.73
2018-10-16T19:21:23.063Z,12.57
2018-10-16T19:23:53.302Z,12.00
2018-10-16T19:26:23.606Z,12.80
2018-10-16T19:28:53.934Z,11.80
2018-10-16T19:31:24.196Z,13.57
2018-10-16T19:33:54.465Z,12.50
2018-10-16T19:36:24.713Z,12.13
2018-10-16T19:38:54.957Z,12.47
2018-10-16T19:41:25.187Z,11.17
2018-10-16T19:43:55.436Z,11.63
2018-10-16T19:46:25.673Z,12.53
2018-10-16T19:48:55.937Z,11.00
2018-10-16T19:51:26.175Z,11.63
2018-10-16T19:53:56.427Z,11.53
2018-10-16T19:56:26.620Z,12.13
2018-10-16T19:58:57.110Z,11.80
2018-10-16T20:01:27.340Z,11.87
2018-10-16T20:03:57.589Z,11.70
2018-10-16T20:06:27.824Z,11.97
2018-10-16T20:08:58.180Z,11.23
2018-10-16T20:11:28.347Z,10.43
2018-10-16T20:13:58.644Z,11.17
2018-10-16T20:16:28.851Z,11.87
2018-10-16T20:18:59.101Z,11.53
2018-10-16T20:21:29.369Z,10.97
2018-10-16T20:23:59.713Z,10.17
2018-10-16T20:26:30.014Z,11.23
2018-10-16T20:29:00.351Z,10.47
2018-10-16T20:31:30.652Z,11.77
2018-10-16T20:34:00.922Z,11.30
2018-10-16T20:36:31.201Z,10.43
2018-10-16T20:39:01.443Z,11.80
2018-10-16T20:41:31.681Z,11.07
2018-10-16T20:44:01.962Z,10.83
2018-10-16T20:46:32.183Z,11.60
2018-10-16T20:49:02.848Z,11.50
2018-10-16T20:51:33.075Z,11.97
2018-10-16T20:54:03.565Z,11.60
2018-10-16T20:56:33.854Z,10.90
2018-10-16T20:59:04.113Z,10.73
2018-10-16T21:01:34.338Z,11.70
2018-10-16T21:04:04.890Z,12.03
2018-10-16T21:06:35.293Z,10.97
2018-10-16T21:09:06.662Z,11.83
2018-10-16T21:11:36.903Z,11.73
2018-10-16T21:14:07.170Z,12.53
2018-10-16T21:16:37.451Z,11.47
2018-10-16T21:19:07.805Z,11.80
2018-10-16T21:21:37.987Z,12.53
2018-10-16T21:24:08.247Z,11.47
2018-10-16T21:26:38.538Z,11.73
2018-10-16T21:29:08.853Z,12.87
2018-10-16T21:31:39.050Z,12.27
2018-10-16T21:34:09.298Z,11.30
2018-10-16T21:36:39.555Z,11.07
2018-10-16T21:39:09.853Z,12.13
2018-10-16T21:41:40.062Z,11.70
2018-10-16T21:44:10.296Z,11.80
2018-10-16T21:46:40.539Z,11.83
2018-10-16T21:49:10.894Z,13.07
2018-10-16T21:51:41.071Z,11.43
2018-10-16T21:54:11.353Z,11.90
2018-10-16T21:56:41.599Z,11.80
2018-10-16T21:59:12.051Z,12.13
2018-10-16T22:01:47.501Z,12.93
2018-10-16T22:04:17.953Z,11.90
2018-10-16T22:06:48.499Z,12.77
2018-10-16T22:09:19.221Z,11.90
2018-10-16T22:11:49.670Z,13.67
2018-10-16T22:14:20.082Z,11.97
2018-10-16T22:16:50.473Z,11.83
2018-10-16T22:19:20.914Z,12.60
2018-10-16T22:21:51.203Z,12.23
2018-10-16T22:24:21.762Z,12.97
2018-10-16T22:26:52.155Z,11.30
2018-10-16T22:29:22.743Z,11.80
2018-10-16T22:31:53.299Z,11.80
2018-10-16T22:34:24.141Z,10.80
2018-10-16T22:36:54.559Z,11.57
2018-10-16T22:39:24.986Z,12.60
2018-10-16T22:41:55.306Z,11.27
2018-10-16T22:44:25.924Z,11.80
2018-10-16T22:46:56.365Z,12.43
2018-10-16T22:49:26.758Z,11.97
2018-10-16T22:51:57.130Z,11.60
2018-10-16T22:54:27.559Z,12.10
2018-10-16T22:56:57.899Z,11.20
2018-10-16T22:59:28.657Z,11.37
2018-10-16T23:01:59.074Z,11.23
2018-10-16T23:04:29.490Z,10.43
2018-10-16T23:06:59.910Z,10.97
2018-10-16T23:09:30.307Z,10.97
2018-10-16T23:12:00.638Z,11.30
2018-10-16T23:14:31.082Z,10.77
2018-10-16T23:17:01.928Z,10.17
2018-10-16T23:19:32.363Z,10.60
2018-10-16T23:22:02.773Z,10.90
2018-10-16T23:24:33.226Z,10.30
2018-10-16T23:27:03.544Z,9.77
2018-10-16T23:29:33.867Z,10.17
2018-10-16T23:32:04.270Z,10.53
2018-10-16T23:34:34.572Z,11.13
2018-10-16T23:37:05.201Z,10.67
2018-10-16T23:39:35.406Z,9.60
2018-10-16T23:42:05.691Z,12.23
2018-10-16T23:44:36.039Z,10.23
2018-10-16T23:47:06.327Z,10.63
2018-10-16T23:49:36.558Z,11.17
2018-10-16T23:52:06.840Z,11.47
2018-10-16T23:54:37.094Z,11.63
2018-10-16T23:57:07.340Z,11.57
2018-10-16T23:59:37.590Z,11.40
